sensor_id;sensor_type;location;lat;lon;timestamp;P1;durP1;ratioP1;P2;durP2;ratioP2
25667;SDS011;18003;-33.830;151.202;2022-08-14T00:02:04;2.35;;;0.90;;
25667;SDS011;18003;-33.830;151.202;2022-08-14T00:04:54;0.80;;;0.80;;
25667;SDS011;18003;-33.830;151.202;2022-08-14T00:07:24;0.80;;;0.80;;
25667;SDS011;18003;-33.830;151.202;2022-08-14T00:09:54;0.75;;;0.75;;
25667;SDS011;18003;-33.830;151.202;2022-08-14T00:12:24;0.80;;;0.80;;
25667;SDS011;18003;-33.830;151.202;2022-08-14T00:14:55;0.70;;;0.70;;
25667;SDS011;18003;-33.830;151.202;2022-08-14T00:17:25;0.80;;;0.80;;
25667;SDS011;18003;-33.830;151.202;2022-08-14T00:19:55;0.72;;;0.70;;
25667;SDS011;18003;-33.830;151.202;2022-08-14T00:22:25;1.87;;;0.75;;
25667;SDS011;18003;-33.830;151.202;2022-08-14T00:24:55;1.55;;;1.00;;
25667;SDS011;18003;-33.830;151.202;2022-08-14T00:27:25;1.15;;;1.10;;
25667;SDS011;18003;-33.830;151.202;2022-08-14T00:29:55;1.60;;;1.00;;
25667;SDS011;18003;-33.830;151.202;2022-08-14T00:32:26;1.00;;;1.00;;
25667;SDS011;18003;-33.830;151.202;2022-08-14T00:34:56;0.90;;;0.90;;
25667;SDS011;18003;-33.830;151.202;2022-08-14T00:37:27;0.90;;;0.90;;
25667;SDS011;18003;-33.830;151.202;2022-08-14T00:39:57;0.83;;;0.83;;
25667;SDS011;18003;-33.830;151.202;2022-08-14T00:42:28;8.30;;;1.40;;
25667;SDS011;18003;-33.830;151.202;2022-08-14T00:44:58;0.80;;;0.80;;
25667;SDS011;18003;-33.830;151.202;2022-08-14T00:47:28;4.80;;;1.10;;
25667;SDS011;18003;-33.830;151.202;2022-08-14T00:49:58;13.85;;;1.80;;
25667;SDS011;18003;-33.830;151.202;2022-08-14T00:52:29;35.13;;;3.55;;
25667;SDS011;18003;-33.830;151.202;2022-08-14T00:55:00;39.00;;;3.83;;
25667;SDS011;18003;-33.830;151.202;2022-08-14T00:57:32;28.20;;;3.65;;
25667;SDS011;18003;-33.830;151.202;2022-08-14T01:00:10;39.88;;;3.65;;
25667;SDS011;18003;-33.830;151.202;2022-08-14T01:02:36;37.08;;;3.65;;
25667;SDS011;18003;-33.830;151.202;2022-08-14T01:05:09;38.75;;;4.53;;
25667;SDS011;18003;-33.830;151.202;2022-08-14T01:07:43;30.00;;;2.70;;
25667;SDS011;18003;-33.830;151.202;2022-08-14T01:10:14;26.40;;;3.05;;
25667;SDS011;18003;-33.830;151.202;2022-08-14T01:12:45;30.97;;;3.10;;
25667;SDS011;18003;-33.830;151.202;2022-08-14T01:15:15;94.23;;;8.03;;
25667;SDS011;18003;-33.830;151.202;2022-08-14T01:17:46;49.03;;;5.10;;
25667;SDS011;18003;-33.830;151.202;2022-08-14T01:20:33;22.27;;;2.92;;
25667;SDS011;18003;-33.830;151.202;2022-08-14T01:23:21;12.85;;;1.90;;
25667;SDS011;18003;-33.830;151.202;2022-08-14T01:25:51;13.55;;;1.62;;
25667;SDS011;18003;-33.830;151.202;2022-08-14T01:28:21;37.75;;;4.55;;
25667;SDS011;18003;-33.830;151.202;2022-08-14T01:30:52;32.50;;;3.90;;
25667;SDS011;18003;-33.830;151.202;2022-08-14T01:33:24;13.85;;;2.80;;
25667;SDS011;18003;-33.830;151.202;2022-08-14T01:35:56;7.75;;;1.67;;
25667;SDS011;18003;-33.830;151.202;2022-08-14T01:38:27;11.00;;;1.72;;
25667;SDS011;18003;-33.830;151.202;2022-08-14T01:41:01;9.20;;;1.25;;
25667;SDS011;18003;-33.830;151.202;2022-08-14T01:43:41;2.87;;;1.17;;
25667;SDS011;18003;-33.830;151.202;2022-08-14T01:46:18;2.83;;;1.00;;
25667;SDS011;18003;-33.830;151.202;2022-08-14T01:51:19;0.93;;;0.88;;
25667;SDS011;18003;-33.830;151.202;2022-08-14T01:53:50;2.02;;;0.90;;
25667;SDS011;18003;-33.830;151.202;2022-08-14T01:56:22;1.17;;;0.90;;
25667;SDS011;18003;-33.830;151.202;2022-08-14T01:58:54;4.72;;;0.90;;
25667;SDS011;18003;-33.830;151.202;2022-08-14T02:01:24;1.17;;;0.70;;
25667;SDS011;18003;-33.830;151.202;2022-08-14T02:03:54;0.60;;;0.60;;
25667;SDS011;18003;-33.830;151.202;2022-08-14T02:06:24;0.90;;;0.90;;
25667;SDS011;18003;-33.830;151.202;2022-08-14T02:08:56;1.07;;;1.07;;
25667;SDS011;18003;-33.830;151.202;2022-08-14T02:11:27;0.88;;;0.88;;
25667;SDS011;18003;-33.830;151.202;2022-08-14T02:13:57;0.80;;;0.80;;
25667;SDS011;18003;-33.830;151.202;2022-08-14T02:16:31;1.07;;;0.80;;
25667;SDS011;18003;-33.830;151.202;2022-08-14T02:19:03;1.32;;;0.93;;
25667;SDS011;18003;-33.830;151.202;2022-08-14T02:21:35;0.90;;;0.90;;
25667;SDS011;18003;-33.830;151.202;2022-08-14T02:24:05;1.00;;;1.00;;
25667;SDS011;18003;-33.830;151.202;2022-08-14T02:26:36;1.37;;;0.90;;
25667;SDS011;18003;-33.830;151.202;2022-08-14T02:29:10;1.60;;;0.90;;
25667;SDS011;18003;-33.830;151.202;2022-08-14T02:31:43;0.90;;;0.90;;
25667;SDS011;18003;-33.830;151.202;2022-08-14T02:34:23;0.98;;;0.98;;
25667;SDS011;18003;-33.830;151.202;2022-08-14T02:37:04;1.05;;;0.90;;
25667;SDS011;18003;-33.830;151.202;2022-08-14T02:39:31;0.80;;;0.80;;
25667;SDS011;18003;-33.830;151.202;2022-08-14T02:42:02;0.80;;;0.80;;
25667;SDS011;18003;-33.830;151.202;2022-08-14T02:44:33;0.80;;;0.80;;
25667;SDS011;18003;-33.830;151.202;2022-08-14T02:47:04;1.10;;;1.00;;
25667;SDS011;18003;-33.830;151.202;2022-08-14T02:49:36;0.98;;;0.98;;
25667;SDS011;18003;-33.830;151.202;2022-08-14T02:52:06;1.60;;;1.00;;
25667;SDS011;18003;-33.830;151.202;2022-08-14T02:54:36;31.60;;;2.40;;
25667;SDS011;18003;-33.830;151.202;2022-08-14T02:57:06;286.73;;;19.35;;
25667;SDS011;18003;-33.830;151.202;2022-08-14T02:59:36;271.55;;;17.95;;
25667;SDS011;18003;-33.830;151.202;2022-08-14T03:02:06;70.92;;;5.53;;
25667;SDS011;18003;-33.830;151.202;2022-08-14T03:04:37;157.78;;;12.07;;
25667;SDS011;18003;-33.830;151.202;2022-08-14T03:07:07;68.42;;;5.22;;
25667;SDS011;18003;-33.830;151.202;2022-08-14T03:09:37;66.55;;;5.90;;
25667;SDS011;18003;-33.830;151.202;2022-08-14T03:12:08;58.15;;;5.20;;
25667;SDS011;18003;-33.830;151.202;2022-08-14T03:14:38;30.50;;;3.35;;
25667;SDS011;18003;-33.830;151.202;2022-08-14T03:17:09;11.85;;;2.52;;
25667;SDS011;18003;-33.830;151.202;2022-08-14T03:19:39;7.80;;;1.67;;
25667;SDS011;18003;-33.830;151.202;2022-08-14T03:22:09;6.92;;;1.40;;
25667;SDS011;18003;-33.830;151.202;2022-08-14T03:24:40;7.30;;;1.80;;
25667;SDS011;18003;-33.830;151.202;2022-08-14T03:27:09;6.90;;;1.70;;
25667;SDS011;18003;-33.830;151.202;2022-08-14T03:29:39;6.55;;;1.30;;
25667;SDS011;18003;-33.830;151.202;2022-08-14T03:32:09;2.77;;;1.10;;
25667;SDS011;18003;-33.830;151.202;2022-08-14T03:34:39;5.40;;;1.02;;
25667;SDS011;18003;-33.830;151.202;2022-08-14T03:37:10;3.87;;;1.17;;
25667;SDS011;18003;-33.830;151.202;2022-08-14T03:39:40;3.95;;;1.00;;
25667;SDS011;18003;-33.830;151.202;2022-08-14T03:42:10;1.70;;;0.72;;
25667;SDS011;18003;-33.830;151.202;2022-08-14T03:44:40;1.30;;;1.00;;
25667;SDS011;18003;-33.830;151.202;2022-08-14T03:47:10;0.98;;;0.98;;
25667;SDS011;18003;-33.830;151.202;2022-08-14T03:49:41;1.00;;;0.90;;
25667;SDS011;18003;-33.830;151.202;2022-08-14T03:52:12;1.05;;;1.00;;
25667;SDS011;18003;-33.830;151.202;2022-08-14T03:54:42;1.12;;;1.00;;
25667;SDS011;18003;-33.830;151.202;2022-08-14T03:57:12;1.20;;;1.20;;
25667;SDS011;18003;-33.830;151.202;2022-08-14T03:59:42;1.22;;;1.20;;
25667;SDS011;18003;-33.830;151.202;2022-08-14T04:02:12;1.50;;;1.40;;
25667;SDS011;18003;-33.830;151.202;2022-08-14T04:04:42;1.07;;;1.07;;
25667;SDS011;18003;-33.830;151.202;2022-08-14T04:07:13;1.12;;;0.93;;
25667;SDS011;18003;-33.830;151.202;2022-08-14T04:09:43;1.47;;;0.80;;
25667;SDS011;18003;-33.830;151.202;2022-08-14T04:12:13;1.57;;;0.90;;
25667;SDS011;18003;-33.830;151.202;2022-08-14T04:14:44;0.70;;;0.70;;
25667;SDS011;18003;-33.830;151.202;2022-08-14T04:17:15;1.60;;;0.70;;
25667;SDS011;18003;-33.830;151.202;2022-08-14T04:19:45;0.90;;;0.90;;
25667;SDS011;18003;-33.830;151.202;2022-08-14T04:22:15;0.90;;;0.90;;
25667;SDS011;18003;-33.830;151.202;2022-08-14T04:24:46;1.32;;;1.00;;
25667;SDS011;18003;-33.830;151.202;2022-08-14T04:27:18;1.10;;;1.00;;
25667;SDS011;18003;-33.830;151.202;2022-08-14T04:29:48;1.30;;;1.20;;
25667;SDS011;18003;-33.830;151.202;2022-08-14T04:32:19;1.10;;;1.10;;
25667;SDS011;18003;-33.830;151.202;2022-08-14T04:34:50;1.10;;;1.10;;
25667;SDS011;18003;-33.830;151.202;2022-08-14T04:37:24;1.77;;;1.07;;
25667;SDS011;18003;-33.830;151.202;2022-08-14T04:40:13;1.10;;;1.10;;
25667;SDS011;18003;-33.830;151.202;2022-08-14T04:43:00;1.00;;;1.00;;
25667;SDS011;18003;-33.830;151.202;2022-08-14T04:45:47;6.12;;;1.20;;
25667;SDS011;18003;-33.830;151.202;2022-08-14T04:48:17;0.90;;;0.90;;
25667;SDS011;18003;-33.830;151.202;2022-08-14T04:50:49;2.17;;;0.93;;
25667;SDS011;18003;-33.830;151.202;2022-08-14T04:53:19;1.00;;;0.93;;
25667;SDS011;18003;-33.830;151.202;2022-08-14T04:55:51;0.95;;;0.95;;
25667;SDS011;18003;-33.830;151.202;2022-08-14T04:58:22;1.30;;;1.20;;
25667;SDS011;18003;-33.830;151.202;2022-08-14T05:03:24;1.10;;;1.10;;
25667;SDS011;18003;-33.830;151.202;2022-08-14T05:08:24;1.00;;;1.00;;
25667;SDS011;18003;-33.830;151.202;2022-08-14T05:10:55;1.00;;;1.00;;
25667;SDS011;18003;-33.830;151.202;2022-08-14T05:13:28;1.07;;;1.00;;
25667;SDS011;18003;-33.830;151.202;2022-08-14T05:15:58;1.00;;;1.00;;
25667;SDS011;18003;-33.830;151.202;2022-08-14T05:18:30;0.90;;;0.90;;
25667;SDS011;18003;-33.830;151.202;2022-08-14T05:21:01;1.00;;;1.00;;
25667;SDS011;18003;-33.830;151.202;2022-08-14T05:23:34;1.12;;;1.12;;
25667;SDS011;18003;-33.830;151.202;2022-08-14T05:26:04;1.10;;;1.10;;
25667;SDS011;18003;-33.830;151.202;2022-08-14T05:28:35;2.40;;;1.35;;
25667;SDS011;18003;-33.830;151.202;2022-08-14T05:31:07;1.10;;;1.10;;
25667;SDS011;18003;-33.830;151.202;2022-08-14T05:33:38;2.65;;;1.00;;
25667;SDS011;18003;-33.830;151.202;2022-08-14T05:36:09;2.30;;;1.10;;
25667;SDS011;18003;-33.830;151.202;2022-08-14T05:38:41;1.10;;;1.10;;
25667;SDS011;18003;-33.830;151.202;2022-08-14T05:41:13;1.15;;;1.15;;
25667;SDS011;18003;-33.830;151.202;2022-08-14T05:43:44;1.27;;;1.27;;
25667;SDS011;18003;-33.830;151.202;2022-08-14T05:46:16;1.47;;;1.10;;
25667;SDS011;18003;-33.830;151.202;2022-08-14T05:48:50;1.15;;;1.10;;
25667;SDS011;18003;-33.830;151.202;2022-08-14T05:53:50;1.00;;;1.00;;
25667;SDS011;18003;-33.830;151.202;2022-08-14T05:56:21;1.10;;;1.10;;
25667;SDS011;18003;-33.830;151.202;2022-08-14T05:58:52;1.00;;;1.00;;
25667;SDS011;18003;-33.830;151.202;2022-08-14T06:01:22;2.35;;;1.10;;
25667;SDS011;18003;-33.830;151.202;2022-08-14T06:03:53;1.10;;;1.00;;
25667;SDS011;18003;-33.830;151.202;2022-08-14T06:06:23;3.60;;;1.10;;
25667;SDS011;18003;-33.830;151.202;2022-08-14T06:08:53;1.72;;;1.20;;
25667;SDS011;18003;-33.830;151.202;2022-08-14T06:11:23;1.40;;;1.30;;
25667;SDS011;18003;-33.830;151.202;2022-08-14T06:13:53;1.22;;;1.20;;
25667;SDS011;18003;-33.830;151.202;2022-08-14T06:16:24;2.08;;;1.15;;
25667;SDS011;18003;-33.830;151.202;2022-08-14T06:18:54;2.90;;;1.07;;
25667;SDS011;18003;-33.830;151.202;2022-08-14T06:21:24;8.75;;;1.50;;
25667;SDS011;18003;-33.830;151.202;2022-08-14T06:23:54;3.15;;;1.25;;
25667;SDS011;18003;-33.830;151.202;2022-08-14T06:26:24;2.35;;;1.10;;
25667;SDS011;18003;-33.830;151.202;2022-08-14T06:28:54;1.75;;;0.90;;
25667;SDS011;18003;-33.830;151.202;2022-08-14T06:31:24;2.30;;;1.00;;
25667;SDS011;18003;-33.830;151.202;2022-08-14T06:33:54;2.40;;;0.90;;
25667;SDS011;18003;-33.830;151.202;2022-08-14T06:36:24;1.35;;;1.25;;
25667;SDS011;18003;-33.830;151.202;2022-08-14T06:38:54;1.30;;;1.20;;
25667;SDS011;18003;-33.830;151.202;2022-08-14T06:41:25;1.15;;;1.15;;
25667;SDS011;18003;-33.830;151.202;2022-08-14T06:43:55;1.20;;;1.20;;
25667;SDS011;18003;-33.830;151.202;2022-08-14T06:46:27;1.40;;;1.40;;
25667;SDS011;18003;-33.830;151.202;2022-08-14T06:48:56;3.37;;;1.22;;
25667;SDS011;18003;-33.830;151.202;2022-08-14T06:51:27;5.45;;;1.98;;
25667;SDS011;18003;-33.830;151.202;2022-08-14T06:53:56;1.20;;;1.20;;
25667;SDS011;18003;-33.830;151.202;2022-08-14T06:56:27;1.40;;;1.30;;
25667;SDS011;18003;-33.830;151.202;2022-08-14T06:58:57;1.32;;;1.22;;
25667;SDS011;18003;-33.830;151.202;2022-08-14T07:01:27;2.80;;;1.30;;
25667;SDS011;18003;-33.830;151.202;2022-08-14T07:04:07;2.25;;;1.50;;
25667;SDS011;18003;-33.830;151.202;2022-08-14T07:06:54;1.62;;;1.40;;
25667;SDS011;18003;-33.830;151.202;2022-08-14T07:09:24;1.50;;;1.40;;
25667;SDS011;18003;-33.830;151.202;2022-08-14T07:11:54;1.15;;;1.10;;
25667;SDS011;18003;-33.830;151.202;2022-08-14T07:14:25;1.15;;;1.10;;
25667;SDS011;18003;-33.830;151.202;2022-08-14T07:16:55;1.57;;;1.00;;
25667;SDS011;18003;-33.830;151.202;2022-08-14T07:19:25;1.05;;;1.00;;
25667;SDS011;18003;-33.830;151.202;2022-08-14T07:21:55;1.00;;;1.00;;
25667;SDS011;18003;-33.830;151.202;2022-08-14T07:24:25;1.10;;;1.10;;
25667;SDS011;18003;-33.830;151.202;2022-08-14T07:26:55;1.25;;;1.10;;
25667;SDS011;18003;-33.830;151.202;2022-08-14T07:29:25;0.90;;;0.90;;
25667;SDS011;18003;-33.830;151.202;2022-08-14T07:31:55;0.90;;;0.90;;
25667;SDS011;18003;-33.830;151.202;2022-08-14T07:34:25;0.80;;;0.80;;
25667;SDS011;18003;-33.830;151.202;2022-08-14T07:36:55;0.70;;;0.70;;
25667;SDS011;18003;-33.830;151.202;2022-08-14T07:39:25;1.52;;;0.90;;
25667;SDS011;18003;-33.830;151.202;2022-08-14T07:41:55;0.90;;;0.90;;
25667;SDS011;18003;-33.830;151.202;2022-08-14T07:44:25;0.80;;;0.80;;
25667;SDS011;18003;-33.830;151.202;2022-08-14T07:46:56;0.80;;;0.80;;
25667;SDS011;18003;-33.830;151.202;2022-08-14T07:49:26;1.00;;;1.00;;
25667;SDS011;18003;-33.830;151.202;2022-08-14T07:51:56;0.60;;;0.60;;
25667;SDS011;18003;-33.830;151.202;2022-08-14T07:54:27;0.85;;;0.85;;
25667;SDS011;18003;-33.830;151.202;2022-08-14T07:57:00;0.90;;;0.90;;
25667;SDS011;18003;-33.830;151.202;2022-08-14T07:59:30;1.90;;;0.90;;
25667;SDS011;18003;-33.830;151.202;2022-08-14T08:02:01;2.75;;;1.20;;
25667;SDS011;18003;-33.830;151.202;2022-08-14T08:04:31;3.45;;;1.30;;
25667;SDS011;18003;-33.830;151.202;2022-08-14T08:07:03;1.30;;;1.20;;
25667;SDS011;18003;-33.830;151.202;2022-08-14T08:09:32;1.52;;;1.15;;
25667;SDS011;18003;-33.830;151.202;2022-08-14T08:12:04;1.10;;;1.10;;
25667;SDS011;18003;-33.830;151.202;2022-08-14T08:14:36;1.10;;;1.00;;
25667;SDS011;18003;-33.830;151.202;2022-08-14T08:17:07;1.30;;;1.10;;
25667;SDS011;18003;-33.830;151.202;2022-08-14T08:19:38;0.80;;;0.80;;
25667;SDS011;18003;-33.830;151.202;2022-08-14T08:22:08;1.10;;;1.10;;
25667;SDS011;18003;-33.830;151.202;2022-08-14T08:24:38;1.37;;;1.15;;
25667;SDS011;18003;-33.830;151.202;2022-08-14T08:27:18;1.10;;;1.07;;
25667;SDS011;18003;-33.830;151.202;2022-08-14T08:29:48;1.37;;;0.95;;
25667;SDS011;18003;-33.830;151.202;2022-08-14T08:32:18;1.37;;;1.00;;
25667;SDS011;18003;-33.830;151.202;2022-08-14T08:34:48;1.22;;;1.15;;
25667;SDS011;18003;-33.830;151.202;2022-08-14T08:37:18;1.05;;;0.93;;
25667;SDS011;18003;-33.830;151.202;2022-08-14T08:39:48;1.20;;;1.20;;
25667;SDS011;18003;-33.830;151.202;2022-08-14T08:42:24;1.00;;;1.00;;
25667;SDS011;18003;-33.830;151.202;2022-08-14T08:44:54;1.75;;;0.98;;
25667;SDS011;18003;-33.830;151.202;2022-08-14T08:47:24;1.20;;;1.10;;
25667;SDS011;18003;-33.830;151.202;2022-08-14T08:49:56;1.30;;;1.20;;
25667;SDS011;18003;-33.830;151.202;2022-08-14T08:52:26;2.23;;;0.90;;
25667;SDS011;18003;-33.830;151.202;2022-08-14T08:54:56;1.10;;;1.10;;
25667;SDS011;18003;-33.830;151.202;2022-08-14T08:57:32;1.87;;;0.90;;
25667;SDS011;18003;-33.830;151.202;2022-08-14T08:59:59;1.15;;;1.02;;
25667;SDS011;18003;-33.830;151.202;2022-08-14T09:02:30;1.15;;;1.05;;
25667;SDS011;18003;-33.830;151.202;2022-08-14T09:05:01;1.10;;;1.10;;
25667;SDS011;18003;-33.830;151.202;2022-08-14T09:10:01;1.12;;;1.10;;
25667;SDS011;18003;-33.830;151.202;2022-08-14T09:12:31;1.22;;;1.00;;
25667;SDS011;18003;-33.830;151.202;2022-08-14T09:15:01;1.22;;;1.12;;
25667;SDS011;18003;-33.830;151.202;2022-08-14T09:17:33;1.32;;;1.22;;
25667;SDS011;18003;-33.830;151.202;2022-08-14T09:20:04;1.22;;;1.12;;
25667;SDS011;18003;-33.830;151.202;2022-08-14T09:22:34;1.12;;;1.02;;
25667;SDS011;18003;-33.830;151.202;2022-08-14T09:25:04;1.30;;;1.20;;
25667;SDS011;18003;-33.830;151.202;2022-08-14T09:27:35;1.20;;;1.10;;
25667;SDS011;18003;-33.830;151.202;2022-08-14T09:30:06;1.10;;;1.10;;
25667;SDS011;18003;-33.830;151.202;2022-08-14T09:32:45;1.30;;;1.20;;
25667;SDS011;18003;-33.830;151.202;2022-08-14T09:35:16;1.20;;;1.10;;
25667;SDS011;18003;-33.830;151.202;2022-08-14T09:40:35;1.20;;;1.20;;
25667;SDS011;18003;-33.830;151.202;2022-08-14T09:45:47;1.02;;;0.98;;
25667;SDS011;18003;-33.830;151.202;2022-08-14T09:48:18;1.20;;;1.10;;
25667;SDS011;18003;-33.830;151.202;2022-08-14T09:50:51;1.15;;;1.15;;
25667;SDS011;18003;-33.830;151.202;2022-08-14T09:53:34;1.30;;;1.20;;
25667;SDS011;18003;-33.830;151.202;2022-08-14T09:56:09;1.62;;;1.50;;
25667;SDS011;18003;-33.830;151.202;2022-08-14T09:58:43;1.57;;;1.20;;
25667;SDS011;18003;-33.830;151.202;2022-08-14T10:01:14;2.05;;;1.30;;
25667;SDS011;18003;-33.830;151.202;2022-08-14T10:06:23;2.08;;;1.30;;
25667;SDS011;18003;-33.830;151.202;2022-08-14T10:11:33;1.50;;;1.40;;
25667;SDS011;18003;-33.830;151.202;2022-08-14T10:16:49;4.45;;;3.00;;
25667;SDS011;18003;-33.830;151.202;2022-08-14T10:19:20;3.33;;;3.02;;
25667;SDS011;18003;-33.830;151.202;2022-08-14T10:21:57;2.77;;;2.50;;
25667;SDS011;18003;-33.830;151.202;2022-08-14T10:24:31;2.65;;;2.17;;
25667;SDS011;18003;-33.830;151.202;2022-08-14T10:27:04;1.98;;;1.80;;
25667;SDS011;18003;-33.830;151.202;2022-08-14T10:29:36;2.08;;;1.87;;
25667;SDS011;18003;-33.830;151.202;2022-08-14T10:32:06;1.90;;;1.80;;
25667;SDS011;18003;-33.830;151.202;2022-08-14T10:34:37;2.27;;;1.77;;
25667;SDS011;18003;-33.830;151.202;2022-08-14T10:37:11;1.62;;;1.50;;
25667;SDS011;18003;-33.830;151.202;2022-08-14T10:39:44;2.47;;;1.65;;
25667;SDS011;18003;-33.830;151.202;2022-08-14T10:44:43;1.80;;;1.70;;
25667;SDS011;18003;-33.830;151.202;2022-08-14T10:47:15;1.60;;;1.50;;
25667;SDS011;18003;-33.830;151.202;2022-08-14T10:49:58;1.80;;;1.70;;
25667;SDS011;18003;-33.830;151.202;2022-08-14T10:52:31;2.47;;;1.82;;
25667;SDS011;18003;-33.830;151.202;2022-08-14T10:55:05;1.80;;;1.70;;
25667;SDS011;18003;-33.830;151.202;2022-08-14T10:57:48;1.62;;;1.50;;
25667;SDS011;18003;-33.830;151.202;2022-08-14T11:00:25;1.80;;;1.70;;
25667;SDS011;18003;-33.830;151.202;2022-08-14T11:02:56;1.80;;;1.70;;
25667;SDS011;18003;-33.830;151.202;2022-08-14T11:05:40;3.17;;;1.50;;
25667;SDS011;18003;-33.830;151.202;2022-08-14T11:08:12;1.60;;;1.50;;
25667;SDS011;18003;-33.830;151.202;2022-08-14T11:10:49;1.90;;;1.50;;
25667;SDS011;18003;-33.830;151.202;2022-08-14T11:13:24;1.60;;;1.50;;
25667;SDS011;18003;-33.830;151.202;2022-08-14T11:15:55;1.75;;;1.57;;
25667;SDS011;18003;-33.830;151.202;2022-08-14T11:18:26;1.85;;;1.62;;
25667;SDS011;18003;-33.830;151.202;2022-08-14T11:20:58;1.70;;;1.60;;
25667;SDS011;18003;-33.830;151.202;2022-08-14T11:23:28;1.70;;;1.60;;
25667;SDS011;18003;-33.830;151.202;2022-08-14T11:26:00;1.77;;;1.67;;
25667;SDS011;18003;-33.830;151.202;2022-08-14T11:28:32;1.62;;;1.52;;
25667;SDS011;18003;-33.830;151.202;2022-08-14T11:31:04;1.95;;;1.60;;
25667;SDS011;18003;-33.830;151.202;2022-08-14T11:33:35;2.62;;;1.50;;
25667;SDS011;18003;-33.830;151.202;2022-08-14T11:36:05;1.70;;;1.60;;
25667;SDS011;18003;-33.830;151.202;2022-08-14T11:38:40;1.75;;;1.55;;
25667;SDS011;18003;-33.830;151.202;2022-08-14T11:41:13;1.80;;;1.70;;
25667;SDS011;18003;-33.830;151.202;2022-08-14T11:43:43;1.77;;;1.52;;
25667;SDS011;18003;-33.830;151.202;2022-08-14T11:46:14;2.08;;;1.72;;
25667;SDS011;18003;-33.830;151.202;2022-08-14T11:48:51;4.87;;;1.67;;
25667;SDS011;18003;-33.830;151.202;2022-08-14T11:51:22;3.10;;;1.90;;
25667;SDS011;18003;-33.830;151.202;2022-08-14T11:56:39;3.65;;;1.60;;
25667;SDS011;18003;-33.830;151.202;2022-08-14T11:59:07;2.50;;;1.77;;
25667;SDS011;18003;-33.830;151.202;2022-08-14T12:01:38;4.10;;;1.80;;
25667;SDS011;18003;-33.830;151.202;2022-08-14T12:04:13;1.72;;;1.62;;
25667;SDS011;18003;-33.830;151.202;2022-08-14T12:06:47;1.90;;;1.75;;
25667;SDS011;18003;-33.830;151.202;2022-08-14T12:09:30;1.77;;;1.67;;
25667;SDS011;18003;-33.830;151.202;2022-08-14T12:11:58;1.90;;;1.80;;
25667;SDS011;18003;-33.830;151.202;2022-08-14T12:14:29;2.80;;;1.80;;
25667;SDS011;18003;-33.830;151.202;2022-08-14T12:17:03;1.50;;;1.40;;
25667;SDS011;18003;-33.830;151.202;2022-08-14T12:19:44;1.80;;;1.70;;
25667;SDS011;18003;-33.830;151.202;2022-08-14T12:22:18;1.50;;;1.40;;
25667;SDS011;18003;-33.830;151.202;2022-08-14T12:24:49;1.47;;;1.37;;
25667;SDS011;18003;-33.830;151.202;2022-08-14T12:27:19;1.42;;;1.32;;
25667;SDS011;18003;-33.830;151.202;2022-08-14T12:29:51;1.50;;;1.40;;
25667;SDS011;18003;-33.830;151.202;2022-08-14T12:32:21;1.75;;;1.65;;
25667;SDS011;18003;-33.830;151.202;2022-08-14T12:34:51;1.70;;;1.60;;
25667;SDS011;18003;-33.830;151.202;2022-08-14T12:37:27;2.02;;;1.70;;
25667;SDS011;18003;-33.830;151.202;2022-08-14T12:40:08;1.42;;;1.32;;
25667;SDS011;18003;-33.830;151.202;2022-08-14T12:42:39;1.53;;;1.33;;
25667;SDS011;18003;-33.830;151.202;2022-08-14T12:45:10;1.22;;;1.20;;
25667;SDS011;18003;-33.830;151.202;2022-08-14T12:47:41;1.32;;;1.20;;
25667;SDS011;18003;-33.830;151.202;2022-08-14T12:50:11;2.05;;;1.30;;
25667;SDS011;18003;-33.830;151.202;2022-08-14T12:52:41;1.57;;;1.10;;
25667;SDS011;18003;-33.830;151.202;2022-08-14T12:55:16;1.15;;;1.00;;
25667;SDS011;18003;-33.830;151.202;2022-08-14T12:57:47;1.52;;;1.30;;
25667;SDS011;18003;-33.830;151.202;2022-08-14T13:00:20;1.00;;;1.00;;
25667;SDS011;18003;-33.830;151.202;2022-08-14T13:05:20;1.00;;;1.00;;
25667;SDS011;18003;-33.830;151.202;2022-08-14T13:07:56;1.00;;;1.00;;
25667;SDS011;18003;-33.830;151.202;2022-08-14T13:10:29;1.37;;;1.10;;
25667;SDS011;18003;-33.830;151.202;2022-08-14T13:13:00;1.05;;;1.05;;
25667;SDS011;18003;-33.830;151.202;2022-08-14T13:15:30;1.20;;;1.15;;
25667;SDS011;18003;-33.830;151.202;2022-08-14T13:18:00;1.00;;;1.00;;
25667;SDS011;18003;-33.830;151.202;2022-08-14T13:20:31;1.27;;;1.12;;
25667;SDS011;18003;-33.830;151.202;2022-08-14T13:23:01;1.10;;;1.10;;
25667;SDS011;18003;-33.830;151.202;2022-08-14T13:25:33;1.20;;;1.10;;
25667;SDS011;18003;-33.830;151.202;2022-08-14T13:28:06;1.35;;;1.25;;
25667;SDS011;18003;-33.830;151.202;2022-08-14T13:30:39;1.40;;;1.30;;
25667;SDS011;18003;-33.830;151.202;2022-08-14T13:33:10;1.17;;;1.12;;
25667;SDS011;18003;-33.830;151.202;2022-08-14T13:35:41;1.30;;;1.20;;
25667;SDS011;18003;-33.830;151.202;2022-08-14T13:38:14;1.60;;;1.50;;
25667;SDS011;18003;-33.830;151.202;2022-08-14T13:40:52;1.50;;;1.40;;
25667;SDS011;18003;-33.830;151.202;2022-08-14T13:43:23;1.20;;;1.20;;
25667;SDS011;18003;-33.830;151.202;2022-08-14T13:45:54;1.10;;;1.10;;
25667;SDS011;18003;-33.830;151.202;2022-08-14T13:48:24;1.95;;;1.20;;
25667;SDS011;18003;-33.830;151.202;2022-08-14T13:50:54;1.25;;;1.25;;
25667;SDS011;18003;-33.830;151.202;2022-08-14T13:53:25;1.10;;;1.10;;
25667;SDS011;18003;-33.830;151.202;2022-08-14T13:55:57;1.47;;;1.20;;
25667;SDS011;18003;-33.830;151.202;2022-08-14T13:58:27;0.90;;;0.90;;
25667;SDS011;18003;-33.830;151.202;2022-08-14T14:03:27;1.00;;;1.00;;
25667;SDS011;18003;-33.830;151.202;2022-08-14T14:06:00;1.10;;;1.10;;
25667;SDS011;18003;-33.830;151.202;2022-08-14T14:08:32;1.20;;;1.10;;
25667;SDS011;18003;-33.830;151.202;2022-08-14T14:13:31;1.00;;;1.00;;
25667;SDS011;18003;-33.830;151.202;2022-08-14T14:16:01;1.22;;;1.10;;
25667;SDS011;18003;-33.830;151.202;2022-08-14T14:18:33;1.07;;;1.07;;
25667;SDS011;18003;-33.830;151.202;2022-08-14T14:21:04;1.30;;;1.30;;
25667;SDS011;18003;-33.830;151.202;2022-08-14T14:23:35;1.27;;;1.02;;
25667;SDS011;18003;-33.830;151.202;2022-08-14T14:26:05;1.22;;;1.12;;
25667;SDS011;18003;-33.830;151.202;2022-08-14T14:28:36;1.20;;;1.20;;
25667;SDS011;18003;-33.830;151.202;2022-08-14T14:31:07;1.23;;;1.20;;
25667;SDS011;18003;-33.830;151.202;2022-08-14T14:33:41;1.87;;;1.10;;
25667;SDS011;18003;-33.830;151.202;2022-08-14T14:36:11;1.22;;;1.12;;
25667;SDS011;18003;-33.830;151.202;2022-08-14T14:38:43;1.40;;;1.30;;
25667;SDS011;18003;-33.830;151.202;2022-08-14T14:41:15;1.30;;;1.20;;
25667;SDS011;18003;-33.830;151.202;2022-08-14T14:43:47;1.10;;;1.10;;
25667;SDS011;18003;-33.830;151.202;2022-08-14T14:46:18;1.35;;;1.25;;
25667;SDS011;18003;-33.830;151.202;2022-08-14T14:48:49;2.05;;;1.20;;
25667;SDS011;18003;-33.830;151.202;2022-08-14T14:51:19;1.50;;;1.40;;
25667;SDS011;18003;-33.830;151.202;2022-08-14T14:53:49;1.40;;;1.30;;
25667;SDS011;18003;-33.830;151.202;2022-08-14T14:56:19;1.30;;;1.20;;
25667;SDS011;18003;-33.830;151.202;2022-08-14T14:58:52;1.30;;;1.20;;
25667;SDS011;18003;-33.830;151.202;2022-08-14T15:01:22;1.52;;;1.27;;
25667;SDS011;18003;-33.830;151.202;2022-08-14T15:03:52;1.50;;;1.10;;
25667;SDS011;18003;-33.830;151.202;2022-08-14T15:06:24;1.10;;;1.10;;
25667;SDS011;18003;-33.830;151.202;2022-08-14T15:08:54;1.30;;;1.15;;
25667;SDS011;18003;-33.830;151.202;2022-08-14T15:11:24;1.37;;;1.00;;
25667;SDS011;18003;-33.830;151.202;2022-08-14T15:13:55;1.00;;;1.00;;